»·PEaware :: AAL777 KLAS-KLAX

AAL777 :: KLAS-KLAX

FLIGHT INFORMATION

Flight Status: Arrived
Operator:
American Airlines
More flights by this operator :: More flights under this callsign
Pilot: Anonymous 7386 (7386)
Aircraft: BOEING 737-800
(B738)
More flights by this aircraft type
Origin: KLAS McCarran Intl
United States
Destination: KLAX Los Angeles Intl
United States
More flights between these airports :: More routes between these airports
Route: +BOACH8 RIKII SHTNR ANJLL4
File this flight plan on PilotEdge
Remarks:
Altitude:
(Current/Filed)
28,000ft
Speed:
(Current/Filed)
450kts
Departed: 15-Jul-20 08:15 PM
Arrived: 15-Jul-20 08:56 PM
Distance/Time
Traveled:
205nm/0:41
Distance/Time
To Go:
Arrived

Flight Plot

Page will automatically refresh every two minutes.

Flight plan parsing failed; only flown route is shown


Map Options




Map Legend


Flown Route
Filed Route
Departure Airport
Arrival Airport
Navaid (VOR, NDB)
Fix

Horizontal Profiles

Position Reports

Time Latitude Longitude Heading Altitude Ground
Speed
15-Jul-20 19:35 36.080489 -115.136439 40 2121ft 0kts
15-Jul-20 19:36 36.080489 -115.136439 39 2121ft 0kts
15-Jul-20 19:37 36.080489 -115.136439 40 2121ft 0kts
15-Jul-20 19:38 36.080489 -115.136439 39 2121ft 0kts
15-Jul-20 19:39 36.080489 -115.136439 39 2121ft 0kts
15-Jul-20 19:40 36.080489 -115.136439 39 2121ft 0kts
15-Jul-20 19:41 36.080489 -115.136439 39 2121ft 0kts
15-Jul-20 19:42 36.080489 -115.136439 39 2121ft 0kts
15-Jul-20 19:43 36.080489 -115.136439 40 2121ft 0kts
15-Jul-20 19:44 36.080489 -115.136439 40 2121ft 0kts
15-Jul-20 19:44 36.080489 -115.136439 39 2121ft 0kts
15-Jul-20 19:45 36.080489 -115.136439 39 2121ft 0kts
15-Jul-20 19:47 36.080489 -115.136439 39 2121ft 0kts
15-Jul-20 19:47 36.080489 -115.136439 39 2121ft 0kts
15-Jul-20 19:48 36.080489 -115.136439 40 2121ft 0kts
15-Jul-20 19:49 36.080489 -115.136439 39 2121ft 0kts
15-Jul-20 19:50 36.080489 -115.136439 39 2121ft 0kts
15-Jul-20 19:51 36.080488 -115.136439 39 2121ft 0kts
15-Jul-20 19:52 36.080488 -115.136439 39 2121ft 0kts
15-Jul-20 19:53 36.080488 -115.136439 39 2121ft 0kts
15-Jul-20 19:54 36.080488 -115.136439 39 2121ft 0kts
15-Jul-20 19:55 36.080489 -115.136439 40 2121ft 0kts
15-Jul-20 19:56 36.080489 -115.136439 39 2121ft 0kts
15-Jul-20 19:57 36.080489 -115.136439 39 2121ft 0kts
15-Jul-20 19:58 36.080489 -115.136439 39 2121ft 0kts
15-Jul-20 19:59 36.080489 -115.136439 39 2121ft 0kts
15-Jul-20 20:00 36.080489 -115.136439 40 2121ft 0kts
15-Jul-20 20:01 36.080489 -115.136439 40 2121ft 0kts
15-Jul-20 20:02 36.080489 -115.136439 40 2121ft 0kts
15-Jul-20 20:03 36.080488 -115.136439 40 2121ft 0kts
15-Jul-20 20:04 36.080082 -115.136859 39 2121ft 2kts
15-Jul-20 20:05 36.079697 -115.136875 313 2121ft 1kts
15-Jul-20 20:06 36.079684 -115.136858 314 2121ft 0kts
15-Jul-20 20:07 36.079692 -115.136868 314 2121ft 0kts
15-Jul-20 20:08 36.079775 -115.138353 232 2121ft 7kts
15-Jul-20 20:09 36.078395 -115.139292 135 2121ft 8kts
15-Jul-20 20:10 36.078272 -115.135462 90 2121ft 15kts
15-Jul-20 20:11 36.078261 -115.129484 92 2121ft 17kts
15-Jul-20 20:12 36.078267 -115.123448 89 2121ft 16kts
15-Jul-20 20:13 36.076500 -115.121359 216 2121ft 5kts
15-Jul-20 20:14 36.076458 -115.147304 269 2134ft 180kts
15-Jul-20 20:15 36.077164 -115.211159 262 4353ft 187kts
15-Jul-20 20:16 36.048652 -115.265644 209 5733ft 220kts
15-Jul-20 20:17 35.981401 -115.295188 200 7594ft 275kts
15-Jul-20 20:18 35.903409 -115.309274 186 10231ft 296kts
15-Jul-20 20:19 35.811429 -115.309570 173 11491ft 353kts
15-Jul-20 20:20 35.711951 -115.298529 173 13961ft 366kts
15-Jul-20 20:21 35.608789 -115.297155 181 16383ft 379kts
15-Jul-20 20:22 35.502726 -115.311435 199 18618ft 392kts
15-Jul-20 20:23 35.405034 -115.375480 210 20650ft 405kts
15-Jul-20 20:24 35.306903 -115.446351 210 22565ft 416kts
15-Jul-20 20:25 35.205829 -115.518840 210 24321ft 427kts
15-Jul-20 20:26 35.109933 -115.604316 223 26084ft 433kts
15-Jul-20 20:27 35.024744 -115.708305 226 27679ft 439kts
15-Jul-20 20:28 34.938374 -115.820027 226 27853ft 454kts
15-Jul-20 20:29 34.852109 -115.929676 225 27857ft 450kts
15-Jul-20 20:30 34.764540 -116.038473 226 27923ft 452kts
15-Jul-20 20:31 34.677616 -116.147832 226 28019ft 448kts
15-Jul-20 20:32 34.591435 -116.256967 226 28036ft 447kts
15-Jul-20 20:33 34.506575 -116.364431 226 27661ft 427kts
15-Jul-20 20:34 34.430746 -116.468009 235 26184ft 403kts
15-Jul-20 20:35 34.374295 -116.585550 242 25088ft 404kts
15-Jul-20 20:36 34.323894 -116.704442 243 24061ft 395kts
15-Jul-20 20:37 34.275135 -116.824929 243 24053ft 400kts
15-Jul-20 20:38 34.226392 -116.945749 243 24008ft 400kts
15-Jul-20 20:39 34.188035 -117.070341 251 21751ft 384kts
15-Jul-20 20:40 34.155217 -117.189873 251 19253ft 370kts
15-Jul-20 20:41 34.123232 -117.305591 251 16746ft 357kts
15-Jul-20 20:42 34.093217 -117.417883 253 14245ft 340kts
15-Jul-20 20:43 34.064969 -117.522440 247 12567ft 320kts
15-Jul-20 20:44 34.031620 -117.614956 246 11172ft 292kts
15-Jul-20 20:45 34.005414 -117.706464 260 9990ft 279kts
15-Jul-20 20:46 33.996512 -117.797906 261 8998ft 263kts
15-Jul-20 20:47 33.987340 -117.884373 261 7877ft 255kts
15-Jul-20 20:48 33.978831 -117.969381 261 7016ft 251kts
15-Jul-20 20:49 33.970923 -118.050485 262 5721ft 235kts
15-Jul-20 20:50 33.963263 -118.126855 262 4412ft 230kts
15-Jul-20 20:51 33.955690 -118.202583 262 3292ft 219kts
15-Jul-20 20:52 33.948729 -118.271208 262 2111ft 185kts
15-Jul-20 20:53 33.943322 -118.324256 262 1095ft 146kts
15-Jul-20 20:54 33.938384 -118.372789 262 338ft 144kts
15-Jul-20 20:55 33.935615 -118.405433 290 113ft 25kts
15-Jul-20 20:56 33.935903 -118.406373 282 113ft 1kts
15-Jul-20 20:57 33.935929 -118.406563 277 113ft 4kts
15-Jul-20 20:58 33.935965 -118.408119 286 113ft 1kts
15-Jul-20 20:59 33.938189 -118.409168 353 113ft 11kts
15-Jul-20 21:00 33.939244 -118.406336 4 113ft 6kts

Navigation Log

Ident Type
Flight plan parsing failed, navigation log unavailable